sensor_id;sensor_type;location;lat;lon;timestamp;P1;durP1;ratioP1;P2;durP2;ratioP2
39486;SDS011;25173;50.430;18.926;2023-05-10T00:02:10;7.95;;;5.43;;
39486;SDS011;25173;50.430;18.926;2023-05-10T00:05:10;10.23;;;5.30;;
39486;SDS011;25173;50.430;18.926;2023-05-10T00:08:11;9.93;;;5.20;;
39486;SDS011;25173;50.430;18.926;2023-05-10T00:11:14;7.25;;;5.18;;
39486;SDS011;25173;50.430;18.926;2023-05-10T00:14:15;9.73;;;6.15;;
39486;SDS011;25173;50.430;18.926;2023-05-10T00:17:16;9.23;;;5.80;;
39486;SDS011;25173;50.430;18.926;2023-05-10T00:20:17;9.02;;;5.05;;
39486;SDS011;25173;50.430;18.926;2023-05-10T00:23:17;9.95;;;5.38;;
39486;SDS011;25173;50.430;18.926;2023-05-10T00:26:18;9.30;;;5.57;;
39486;SDS011;25173;50.430;18.926;2023-05-10T00:29:24;9.52;;;5.47;;
39486;SDS011;25173;50.430;18.926;2023-05-10T00:32:24;7.40;;;5.38;;
39486;SDS011;25173;50.430;18.926;2023-05-10T00:35:25;8.63;;;5.32;;
39486;SDS011;25173;50.430;18.926;2023-05-10T00:38:26;11.10;;;6.32;;
39486;SDS011;25173;50.430;18.926;2023-05-10T00:41:26;8.52;;;5.95;;
39486;SDS011;25173;50.430;18.926;2023-05-10T00:44:28;9.20;;;6.25;;
39486;SDS011;25173;50.430;18.926;2023-05-10T00:47:29;8.98;;;5.65;;
39486;SDS011;25173;50.430;18.926;2023-05-10T00:50:30;10.65;;;5.68;;
39486;SDS011;25173;50.430;18.926;2023-05-10T00:53:32;8.00;;;5.88;;
39486;SDS011;25173;50.430;18.926;2023-05-10T00:56:34;9.18;;;5.63;;
39486;SDS011;25173;50.430;18.926;2023-05-10T00:59:36;16.35;;;6.22;;
39486;SDS011;25173;50.430;18.926;2023-05-10T01:02:45;14.80;;;6.55;;
39486;SDS011;25173;50.430;18.926;2023-05-10T01:05:46;11.80;;;7.20;;
39486;SDS011;25173;50.430;18.926;2023-05-10T01:08:47;14.43;;;6.97;;
39486;SDS011;25173;50.430;18.926;2023-05-10T01:11:47;12.38;;;6.70;;
39486;SDS011;25173;50.430;18.926;2023-05-10T01:14:49;12.32;;;7.53;;
39486;SDS011;25173;50.430;18.926;2023-05-10T01:17:49;16.80;;;7.65;;
39486;SDS011;25173;50.430;18.926;2023-05-10T01:20:55;15.65;;;7.95;;
39486;SDS011;25173;50.430;18.926;2023-05-10T01:30:48;15.70;;;7.93;;
39486;SDS011;25173;50.430;18.926;2023-05-10T01:37:15;18.15;;;8.25;;
39486;SDS011;25173;50.430;18.926;2023-05-10T01:40:42;18.10;;;7.70;;
39486;SDS011;25173;50.430;18.926;2023-05-10T01:47:35;17.13;;;8.00;;
39486;SDS011;25173;50.430;18.926;2023-05-10T01:50:40;22.15;;;8.18;;
39486;SDS011;25173;50.430;18.926;2023-05-10T01:53:44;20.27;;;8.60;;
39486;SDS011;25173;50.430;18.926;2023-05-10T01:56:48;19.33;;;8.32;;
39486;SDS011;25173;50.430;18.926;2023-05-10T02:00:04;18.15;;;9.18;;
39486;SDS011;25173;50.430;18.926;2023-05-10T02:03:14;21.45;;;9.80;;
39486;SDS011;25173;50.430;18.926;2023-05-10T02:06:16;20.38;;;9.00;;
39486;SDS011;25173;50.430;18.926;2023-05-10T02:09:20;18.27;;;9.70;;
39486;SDS011;25173;50.430;18.926;2023-05-10T02:12:22;16.15;;;9.20;;
39486;SDS011;25173;50.430;18.926;2023-05-10T02:15:26;18.17;;;9.02;;
39486;SDS011;25173;50.430;18.926;2023-05-10T02:18:51;21.80;;;10.48;;
39486;SDS011;25173;50.430;18.926;2023-05-10T02:21:53;16.10;;;9.20;;
39486;SDS011;25173;50.430;18.926;2023-05-10T02:24:55;21.73;;;9.68;;
39486;SDS011;25173;50.430;18.926;2023-05-10T02:27:59;14.85;;;8.63;;
39486;SDS011;25173;50.430;18.926;2023-05-10T02:31:02;21.45;;;8.98;;
39486;SDS011;25173;50.430;18.926;2023-05-10T02:34:03;14.35;;;7.95;;
39486;SDS011;25173;50.430;18.926;2023-05-10T02:37:04;19.88;;;9.05;;
39486;SDS011;25173;50.430;18.926;2023-05-10T02:40:06;16.75;;;9.07;;
39486;SDS011;25173;50.430;18.926;2023-05-10T02:43:09;18.23;;;9.82;;
39486;SDS011;25173;50.430;18.926;2023-05-10T02:46:13;16.17;;;9.20;;
39486;SDS011;25173;50.430;18.926;2023-05-10T02:49:14;20.02;;;9.68;;
39486;SDS011;25173;50.430;18.926;2023-05-10T02:52:16;14.23;;;7.82;;
39486;SDS011;25173;50.430;18.926;2023-05-10T02:55:25;18.17;;;10.23;;
39486;SDS011;25173;50.430;18.926;2023-05-10T02:58:32;18.33;;;9.65;;
39486;SDS011;25173;50.430;18.926;2023-05-10T03:01:33;20.20;;;9.40;;
39486;SDS011;25173;50.430;18.926;2023-05-10T03:04:34;16.85;;;9.55;;
39486;SDS011;25173;50.430;18.926;2023-05-10T03:07:34;18.17;;;9.48;;
39486;SDS011;25173;50.430;18.926;2023-05-10T03:10:38;20.38;;;9.50;;
39486;SDS011;25173;50.430;18.926;2023-05-10T03:20:38;23.52;;;9.32;;
39486;SDS011;25173;50.430;18.926;2023-05-10T03:23:45;18.00;;;8.40;;
39486;SDS011;25173;50.430;18.926;2023-05-10T03:26:50;22.08;;;8.77;;
39486;SDS011;25173;50.430;18.926;2023-05-10T03:29:57;13.98;;;8.68;;
39486;SDS011;25173;50.430;18.926;2023-05-10T03:32:59;18.05;;;9.00;;
39486;SDS011;25173;50.430;18.926;2023-05-10T03:36:04;15.85;;;8.95;;
39486;SDS011;25173;50.430;18.926;2023-05-10T03:39:05;21.17;;;8.85;;
39486;SDS011;25173;50.430;18.926;2023-05-10T03:42:06;28.23;;;9.43;;
39486;SDS011;25173;50.430;18.926;2023-05-10T03:45:07;30.27;;;10.20;;
39486;SDS011;25173;50.430;18.926;2023-05-10T03:48:08;21.65;;;10.88;;
39486;SDS011;25173;50.430;18.926;2023-05-10T03:51:08;25.95;;;10.60;;
39486;SDS011;25173;50.430;18.926;2023-05-10T03:54:09;21.88;;;9.15;;
39486;SDS011;25173;50.430;18.926;2023-05-10T03:57:10;18.65;;;9.40;;
39486;SDS011;25173;50.430;18.926;2023-05-10T04:00:10;25.27;;;10.35;;
39486;SDS011;25173;50.430;18.926;2023-05-10T04:03:17;27.65;;;11.57;;
39486;SDS011;25173;50.430;18.926;2023-05-10T04:06:18;27.77;;;10.65;;
39486;SDS011;25173;50.430;18.926;2023-05-10T04:09:19;24.00;;;11.05;;
39486;SDS011;25173;50.430;18.926;2023-05-10T04:12:19;18.95;;;10.65;;
39486;SDS011;25173;50.430;18.926;2023-05-10T04:15:20;26.63;;;13.23;;
39486;SDS011;25173;50.430;18.926;2023-05-10T04:18:21;25.00;;;11.13;;
39486;SDS011;25173;50.430;18.926;2023-05-10T04:21:21;21.63;;;11.35;;
39486;SDS011;25173;50.430;18.926;2023-05-10T04:24:22;23.77;;;11.13;;
39486;SDS011;25173;50.430;18.926;2023-05-10T04:27:22;22.08;;;10.43;;
39486;SDS011;25173;50.430;18.926;2023-05-10T04:30:23;19.60;;;10.50;;
39486;SDS011;25173;50.430;18.926;2023-05-10T04:33:24;23.17;;;9.70;;
39486;SDS011;25173;50.430;18.926;2023-05-10T04:36:24;22.58;;;11.63;;
39486;SDS011;25173;50.430;18.926;2023-05-10T04:39:25;23.95;;;9.32;;
39486;SDS011;25173;50.430;18.926;2023-05-10T04:42:25;16.73;;;9.20;;
39486;SDS011;25173;50.430;18.926;2023-05-10T04:45:26;19.05;;;9.38;;
39486;SDS011;25173;50.430;18.926;2023-05-10T04:48:27;18.35;;;10.10;;
39486;SDS011;25173;50.430;18.926;2023-05-10T04:51:27;17.20;;;9.23;;
39486;SDS011;25173;50.430;18.926;2023-05-10T04:54:28;20.50;;;8.60;;
39486;SDS011;25173;50.430;18.926;2023-05-10T04:57:28;19.05;;;9.95;;
39486;SDS011;25173;50.430;18.926;2023-05-10T05:00:29;25.70;;;10.98;;
39486;SDS011;25173;50.430;18.926;2023-05-10T05:03:30;16.58;;;9.63;;
39486;SDS011;25173;50.430;18.926;2023-05-10T05:06:30;20.63;;;9.02;;
39486;SDS011;25173;50.430;18.926;2023-05-10T05:09:31;18.67;;;8.90;;
39486;SDS011;25173;50.430;18.926;2023-05-10T05:12:32;88.85;;;13.18;;
39486;SDS011;25173;50.430;18.926;2023-05-10T05:15:32;18.50;;;7.30;;
39486;SDS011;25173;50.430;18.926;2023-05-10T05:18:33;17.20;;;7.63;;
39486;SDS011;25173;50.430;18.926;2023-05-10T05:21:34;12.15;;;7.00;;
39486;SDS011;25173;50.430;18.926;2023-05-10T05:24:35;14.13;;;6.88;;
39486;SDS011;25173;50.430;18.926;2023-05-10T05:27:38;17.00;;;7.35;;
39486;SDS011;25173;50.430;18.926;2023-05-10T05:30:38;12.82;;;6.68;;
39486;SDS011;25173;50.430;18.926;2023-05-10T05:33:39;13.25;;;7.20;;
39486;SDS011;25173;50.430;18.926;2023-05-10T05:36:39;9.38;;;5.88;;
39486;SDS011;25173;50.430;18.926;2023-05-10T05:39:40;14.35;;;5.93;;
39486;SDS011;25173;50.430;18.926;2023-05-10T05:42:41;10.52;;;6.38;;
39486;SDS011;25173;50.430;18.926;2023-05-10T05:45:42;10.45;;;6.80;;
39486;SDS011;25173;50.430;18.926;2023-05-10T05:48:42;11.75;;;5.78;;
39486;SDS011;25173;50.430;18.926;2023-05-10T05:51:43;10.95;;;6.07;;
39486;SDS011;25173;50.430;18.926;2023-05-10T05:54:44;11.13;;;5.85;;
39486;SDS011;25173;50.430;18.926;2023-05-10T05:57:45;10.57;;;5.93;;
39486;SDS011;25173;50.430;18.926;2023-05-10T06:00:45;12.57;;;5.20;;
39486;SDS011;25173;50.430;18.926;2023-05-10T06:03:47;11.70;;;5.55;;
39486;SDS011;25173;50.430;18.926;2023-05-10T06:06:47;11.70;;;5.28;;
39486;SDS011;25173;50.430;18.926;2023-05-10T06:09:48;10.23;;;5.32;;
39486;SDS011;25173;50.430;18.926;2023-05-10T06:12:49;7.22;;;4.82;;
39486;SDS011;25173;50.430;18.926;2023-05-10T06:15:49;10.45;;;5.43;;
39486;SDS011;25173;50.430;18.926;2023-05-10T06:18:50;14.70;;;5.95;;
39486;SDS011;25173;50.430;18.926;2023-05-10T06:21:51;10.73;;;4.90;;
39486;SDS011;25173;50.430;18.926;2023-05-10T06:24:51;16.88;;;5.40;;
39486;SDS011;25173;50.430;18.926;2023-05-10T06:27:52;17.30;;;5.25;;
39486;SDS011;25173;50.430;18.926;2023-05-10T06:30:57;12.17;;;4.57;;
39486;SDS011;25173;50.430;18.926;2023-05-10T06:33:58;7.80;;;4.50;;
39486;SDS011;25173;50.430;18.926;2023-05-10T06:36:58;8.73;;;4.30;;
39486;SDS011;25173;50.430;18.926;2023-05-10T06:39:59;9.15;;;4.68;;
39486;SDS011;25173;50.430;18.926;2023-05-10T06:42:59;9.40;;;3.83;;
39486;SDS011;25173;50.430;18.926;2023-05-10T06:46:00;7.03;;;3.92;;
39486;SDS011;25173;50.430;18.926;2023-05-10T06:49:01;8.38;;;4.35;;
39486;SDS011;25173;50.430;18.926;2023-05-10T06:52:01;6.38;;;3.90;;
39486;SDS011;25173;50.430;18.926;2023-05-10T06:55:02;6.95;;;3.80;;
39486;SDS011;25173;50.430;18.926;2023-05-10T06:58:03;4.97;;;3.28;;
39486;SDS011;25173;50.430;18.926;2023-05-10T07:01:04;8.75;;;3.85;;
39486;SDS011;25173;50.430;18.926;2023-05-10T07:04:05;6.65;;;2.97;;
39486;SDS011;25173;50.430;18.926;2023-05-10T07:07:07;13.80;;;3.20;;
39486;SDS011;25173;50.430;18.926;2023-05-10T07:10:08;5.53;;;2.37;;
39486;SDS011;25173;50.430;18.926;2023-05-10T07:13:09;4.25;;;2.70;;
39486;SDS011;25173;50.430;18.926;2023-05-10T07:16:10;6.30;;;3.05;;
39486;SDS011;25173;50.430;18.926;2023-05-10T07:19:11;5.15;;;3.10;;
39486;SDS011;25173;50.430;18.926;2023-05-10T07:22:11;6.55;;;3.22;;
39486;SDS011;25173;50.430;18.926;2023-05-10T07:25:12;3.83;;;2.58;;
39486;SDS011;25173;50.430;18.926;2023-05-10T07:28:13;4.32;;;2.72;;
39486;SDS011;25173;50.430;18.926;2023-05-10T07:31:14;2.58;;;2.25;;
39486;SDS011;25173;50.430;18.926;2023-05-10T07:34:15;4.55;;;3.08;;
39486;SDS011;25173;50.430;18.926;2023-05-10T07:37:16;5.13;;;2.85;;
39486;SDS011;25173;50.430;18.926;2023-05-10T07:40:17;3.70;;;2.60;;
39486;SDS011;25173;50.430;18.926;2023-05-10T07:43:17;6.22;;;2.55;;
39486;SDS011;25173;50.430;18.926;2023-05-10T07:46:18;3.40;;;2.22;;
39486;SDS011;25173;50.430;18.926;2023-05-10T07:49:19;3.90;;;2.78;;
39486;SDS011;25173;50.430;18.926;2023-05-10T07:52:20;7.88;;;2.90;;
39486;SDS011;25173;50.430;18.926;2023-05-10T07:55:21;5.43;;;2.95;;
39486;SDS011;25173;50.430;18.926;2023-05-10T07:58:21;4.30;;;2.42;;
39486;SDS011;25173;50.430;18.926;2023-05-10T08:01:22;5.60;;;2.47;;
39486;SDS011;25173;50.430;18.926;2023-05-10T08:04:23;5.05;;;2.83;;
39486;SDS011;25173;50.430;18.926;2023-05-10T08:07:24;4.88;;;2.42;;
39486;SDS011;25173;50.430;18.926;2023-05-10T08:10:25;6.68;;;2.50;;
39486;SDS011;25173;50.430;18.926;2023-05-10T08:13:26;2.53;;;2.33;;
39486;SDS011;25173;50.430;18.926;2023-05-10T08:16:26;5.50;;;3.03;;
39486;SDS011;25173;50.430;18.926;2023-05-10T08:19:27;3.72;;;2.25;;
39486;SDS011;25173;50.430;18.926;2023-05-10T08:22:28;5.15;;;2.40;;
39486;SDS011;25173;50.430;18.926;2023-05-10T08:25:28;6.32;;;3.05;;
39486;SDS011;25173;50.430;18.926;2023-05-10T08:28:29;3.42;;;2.30;;
39486;SDS011;25173;50.430;18.926;2023-05-10T08:31:30;4.82;;;2.20;;
39486;SDS011;25173;50.430;18.926;2023-05-10T08:34:30;3.03;;;2.03;;
39486;SDS011;25173;50.430;18.926;2023-05-10T08:37:31;8.18;;;2.42;;
39486;SDS011;25173;50.430;18.926;2023-05-10T08:40:33;3.08;;;1.98;;
39486;SDS011;25173;50.430;18.926;2023-05-10T08:43:36;4.68;;;2.08;;
39486;SDS011;25173;50.430;18.926;2023-05-10T08:46:37;2.65;;;1.73;;
39486;SDS011;25173;50.430;18.926;2023-05-10T08:49:44;3.55;;;2.00;;
39486;SDS011;25173;50.430;18.926;2023-05-10T08:52:49;2.28;;;1.95;;
39486;SDS011;25173;50.430;18.926;2023-05-10T08:55:53;5.50;;;2.03;;
39486;SDS011;25173;50.430;18.926;2023-05-10T08:58:53;5.88;;;2.17;;
39486;SDS011;25173;50.430;18.926;2023-05-10T09:01:58;3.13;;;1.70;;
39486;SDS011;25173;50.430;18.926;2023-05-10T09:04:59;3.17;;;2.25;;
39486;SDS011;25173;50.430;18.926;2023-05-10T09:08:00;4.45;;;1.90;;
39486;SDS011;25173;50.430;18.926;2023-05-10T09:11:01;6.25;;;2.20;;
39486;SDS011;25173;50.430;18.926;2023-05-10T09:14:01;3.83;;;2.00;;
39486;SDS011;25173;50.430;18.926;2023-05-10T09:17:02;4.47;;;2.10;;
39486;SDS011;25173;50.430;18.926;2023-05-10T09:20:04;4.15;;;1.77;;
39486;SDS011;25173;50.430;18.926;2023-05-10T09:23:06;3.33;;;1.73;;
39486;SDS011;25173;50.430;18.926;2023-05-10T09:26:07;3.08;;;1.75;;
39486;SDS011;25173;50.430;18.926;2023-05-10T09:29:07;5.47;;;2.35;;
39486;SDS011;25173;50.430;18.926;2023-05-10T09:32:08;6.00;;;2.20;;
39486;SDS011;25173;50.430;18.926;2023-05-10T09:35:13;5.22;;;1.90;;
39486;SDS011;25173;50.430;18.926;2023-05-10T09:38:19;3.78;;;2.47;;
39486;SDS011;25173;50.430;18.926;2023-05-10T09:41:21;3.42;;;1.60;;
39486;SDS011;25173;50.430;18.926;2023-05-10T09:44:22;2.60;;;1.30;;
39486;SDS011;25173;50.430;18.926;2023-05-10T09:47:23;4.97;;;2.03;;
39486;SDS011;25173;50.430;18.926;2023-05-10T09:50:25;4.15;;;1.83;;
39486;SDS011;25173;50.430;18.926;2023-05-10T09:53:26;4.70;;;2.05;;
39486;SDS011;25173;50.430;18.926;2023-05-10T09:56:33;3.65;;;1.85;;
39486;SDS011;25173;50.430;18.926;2023-05-10T09:59:42;2.35;;;1.60;;
39486;SDS011;25173;50.430;18.926;2023-05-10T10:02:44;3.90;;;1.95;;
39486;SDS011;25173;50.430;18.926;2023-05-10T10:05:46;3.80;;;1.70;;
39486;SDS011;25173;50.430;18.926;2023-05-10T10:08:48;4.18;;;2.22;;
39486;SDS011;25173;50.430;18.926;2023-05-10T10:11:49;4.25;;;2.22;;
39486;SDS011;25173;50.430;18.926;2023-05-10T10:14:50;3.72;;;1.88;;
39486;SDS011;25173;50.430;18.926;2023-05-10T10:17:51;4.75;;;2.00;;
39486;SDS011;25173;50.430;18.926;2023-05-10T10:20:54;2.40;;;1.95;;
39486;SDS011;25173;50.430;18.926;2023-05-10T10:23:56;5.35;;;2.17;;
39486;SDS011;25173;50.430;18.926;2023-05-10T10:26:57;9.48;;;1.80;;
39486;SDS011;25173;50.430;18.926;2023-05-10T10:36:46;7.78;;;2.40;;
39486;SDS011;25173;50.430;18.926;2023-05-10T10:39:50;2.65;;;1.83;;
39486;SDS011;25173;50.430;18.926;2023-05-10T10:42:50;5.78;;;1.52;;
39486;SDS011;25173;50.430;18.926;2023-05-10T10:49:10;1.92;;;1.70;;
39486;SDS011;25173;50.430;18.926;2023-05-10T10:55:35;3.53;;;1.90;;
39486;SDS011;25173;50.430;18.926;2023-05-10T10:58:49;4.95;;;2.13;;
39486;SDS011;25173;50.430;18.926;2023-05-10T11:01:53;7.13;;;2.58;;
39486;SDS011;25173;50.430;18.926;2023-05-10T11:04:54;3.35;;;2.47;;
39486;SDS011;25173;50.430;18.926;2023-05-10T11:07:55;3.55;;;1.80;;
39486;SDS011;25173;50.430;18.926;2023-05-10T11:14:07;5.20;;;1.77;;
39486;SDS011;25173;50.430;18.926;2023-05-10T11:20:42;6.88;;;2.22;;
39486;SDS011;25173;50.430;18.926;2023-05-10T11:26:43;2.63;;;1.65;;
39486;SDS011;25173;50.430;18.926;2023-05-10T11:29:44;2.40;;;1.80;;
39486;SDS011;25173;50.430;18.926;2023-05-10T11:32:45;2.80;;;2.28;;
39486;SDS011;25173;50.430;18.926;2023-05-10T11:35:46;3.15;;;2.28;;
39486;SDS011;25173;50.430;18.926;2023-05-10T11:38:47;2.63;;;2.05;;
39486;SDS011;25173;50.430;18.926;2023-05-10T11:41:49;4.93;;;1.90;;
39486;SDS011;25173;50.430;18.926;2023-05-10T11:44:49;3.45;;;2.72;;
39486;SDS011;25173;50.430;18.926;2023-05-10T11:47:50;4.97;;;2.00;;
39486;SDS011;25173;50.430;18.926;2023-05-10T11:50:51;7.22;;;2.40;;
39486;SDS011;25173;50.430;18.926;2023-05-10T11:53:55;4.93;;;2.17;;
39486;SDS011;25173;50.430;18.926;2023-05-10T11:56:57;3.42;;;1.63;;
39486;SDS011;25173;50.430;18.926;2023-05-10T11:59:57;7.75;;;2.05;;
39486;SDS011;25173;50.430;18.926;2023-05-10T12:02:59;6.57;;;2.30;;
39486;SDS011;25173;50.430;18.926;2023-05-10T12:06:01;10.38;;;2.97;;
39486;SDS011;25173;50.430;18.926;2023-05-10T12:09:05;5.65;;;1.60;;
39486;SDS011;25173;50.430;18.926;2023-05-10T12:15:12;4.68;;;2.20;;
39486;SDS011;25173;50.430;18.926;2023-05-10T12:18:22;3.50;;;2.28;;
39486;SDS011;25173;50.430;18.926;2023-05-10T12:21:25;3.85;;;2.20;;
39486;SDS011;25173;50.430;18.926;2023-05-10T12:24:27;3.25;;;2.15;;
39486;SDS011;25173;50.430;18.926;2023-05-10T12:27:31;2.60;;;1.88;;
39486;SDS011;25173;50.430;18.926;2023-05-10T12:30:32;2.95;;;1.80;;
39486;SDS011;25173;50.430;18.926;2023-05-10T12:33:35;3.67;;;2.03;;
39486;SDS011;25173;50.430;18.926;2023-05-10T12:36:41;3.95;;;2.05;;
39486;SDS011;25173;50.430;18.926;2023-05-10T12:39:43;4.75;;;1.92;;
39486;SDS011;25173;50.430;18.926;2023-05-10T12:42:44;4.82;;;2.38;;
39486;SDS011;25173;50.430;18.926;2023-05-10T12:45:45;4.30;;;1.83;;
39486;SDS011;25173;50.430;18.926;2023-05-10T12:48:48;5.32;;;1.90;;
39486;SDS011;25173;50.430;18.926;2023-05-10T12:51:54;7.30;;;2.00;;
39486;SDS011;25173;50.430;18.926;2023-05-10T12:54:55;4.72;;;2.10;;
39486;SDS011;25173;50.430;18.926;2023-05-10T12:57:56;4.20;;;2.25;;
39486;SDS011;25173;50.430;18.926;2023-05-10T13:00:57;5.28;;;2.13;;
39486;SDS011;25173;50.430;18.926;2023-05-10T13:03:58;8.77;;;1.98;;
39486;SDS011;25173;50.430;18.926;2023-05-10T13:07:00;3.88;;;2.47;;
39486;SDS011;25173;50.430;18.926;2023-05-10T13:10:00;12.75;;;2.88;;
39486;SDS011;25173;50.430;18.926;2023-05-10T13:13:01;5.25;;;2.00;;
39486;SDS011;25173;50.430;18.926;2023-05-10T13:16:02;9.52;;;2.53;;
39486;SDS011;25173;50.430;18.926;2023-05-10T13:19:03;6.85;;;2.70;;
39486;SDS011;25173;50.430;18.926;2023-05-10T13:22:04;6.10;;;2.30;;
39486;SDS011;25173;50.430;18.926;2023-05-10T13:25:04;3.63;;;2.20;;
39486;SDS011;25173;50.430;18.926;2023-05-10T13:28:05;5.90;;;2.40;;
39486;SDS011;25173;50.430;18.926;2023-05-10T13:31:06;7.38;;;2.40;;
39486;SDS011;25173;50.430;18.926;2023-05-10T13:34:07;6.53;;;2.17;;
39486;SDS011;25173;50.430;18.926;2023-05-10T13:37:08;6.38;;;1.85;;
39486;SDS011;25173;50.430;18.926;2023-05-10T13:40:08;7.22;;;2.63;;
39486;SDS011;25173;50.430;18.926;2023-05-10T13:43:09;5.28;;;2.30;;
39486;SDS011;25173;50.430;18.926;2023-05-10T13:46:10;8.77;;;2.63;;
39486;SDS011;25173;50.430;18.926;2023-05-10T13:49:10;8.20;;;2.08;;
39486;SDS011;25173;50.430;18.926;2023-05-10T13:52:11;4.43;;;2.20;;
39486;SDS011;25173;50.430;18.926;2023-05-10T13:55:12;4.78;;;2.03;;
39486;SDS011;25173;50.430;18.926;2023-05-10T13:58:20;6.57;;;2.60;;
39486;SDS011;25173;50.430;18.926;2023-05-10T14:01:20;6.03;;;2.38;;
39486;SDS011;25173;50.430;18.926;2023-05-10T14:04:21;3.83;;;2.45;;
39486;SDS011;25173;50.430;18.926;2023-05-10T14:07:22;4.57;;;2.33;;
39486;SDS011;25173;50.430;18.926;2023-05-10T14:10:22;4.78;;;2.13;;
39486;SDS011;25173;50.430;18.926;2023-05-10T14:13:23;8.00;;;2.28;;
39486;SDS011;25173;50.430;18.926;2023-05-10T14:16:24;3.33;;;2.17;;
39486;SDS011;25173;50.430;18.926;2023-05-10T14:19:26;7.80;;;2.33;;
39486;SDS011;25173;50.430;18.926;2023-05-10T14:22:27;6.13;;;2.33;;
39486;SDS011;25173;50.430;18.926;2023-05-10T14:25:28;3.42;;;2.15;;
39486;SDS011;25173;50.430;18.926;2023-05-10T14:28:28;3.70;;;2.22;;
39486;SDS011;25173;50.430;18.926;2023-05-10T14:31:29;10.00;;;2.42;;
39486;SDS011;25173;50.430;18.926;2023-05-10T14:34:30;3.83;;;2.03;;
39486;SDS011;25173;50.430;18.926;2023-05-10T14:37:30;4.78;;;2.22;;
39486;SDS011;25173;50.430;18.926;2023-05-10T14:40:31;2.30;;;2.10;;
39486;SDS011;25173;50.430;18.926;2023-05-10T14:43:32;7.40;;;2.08;;
39486;SDS011;25173;50.430;18.926;2023-05-10T14:46:33;6.00;;;2.40;;
39486;SDS011;25173;50.430;18.926;2023-05-10T14:49:34;7.07;;;2.30;;
39486;SDS011;25173;50.430;18.926;2023-05-10T14:52:35;24.13;;;12.55;;
39486;SDS011;25173;50.430;18.926;2023-05-10T14:55:36;3.65;;;2.30;;
39486;SDS011;25173;50.430;18.926;2023-05-10T14:58:38;9.52;;;2.47;;
39486;SDS011;25173;50.430;18.926;2023-05-10T15:01:39;5.50;;;2.25;;
39486;SDS011;25173;50.430;18.926;2023-05-10T15:04:41;5.95;;;2.47;;
39486;SDS011;25173;50.430;18.926;2023-05-10T15:07:42;7.20;;;2.08;;
39486;SDS011;25173;50.430;18.926;2023-05-10T15:10:44;3.05;;;2.17;;
39486;SDS011;25173;50.430;18.926;2023-05-10T15:13:44;3.40;;;1.98;;
39486;SDS011;25173;50.430;18.926;2023-05-10T15:16:45;5.03;;;2.38;;
39486;SDS011;25173;50.430;18.926;2023-05-10T15:19:45;4.18;;;2.08;;
39486;SDS011;25173;50.430;18.926;2023-05-10T15:22:46;9.35;;;2.85;;
39486;SDS011;25173;50.430;18.926;2023-05-10T15:25:47;2.38;;;2.10;;
39486;SDS011;25173;50.430;18.926;2023-05-10T15:28:49;4.75;;;2.63;;
39486;SDS011;25173;50.430;18.926;2023-05-10T15:31:50;14.38;;;2.67;;
39486;SDS011;25173;50.430;18.926;2023-05-10T15:34:51;4.43;;;2.17;;
39486;SDS011;25173;50.430;18.926;2023-05-10T15:37:52;2.80;;;1.88;;
39486;SDS011;25173;50.430;18.926;2023-05-10T15:40:55;6.07;;;1.92;;
39486;SDS011;25173;50.430;18.926;2023-05-10T15:43:57;6.13;;;2.40;;
39486;SDS011;25173;50.430;18.926;2023-05-10T15:47:00;3.72;;;2.13;;
39486;SDS011;25173;50.430;18.926;2023-05-10T15:50:01;17.52;;;2.22;;
39486;SDS011;25173;50.430;18.926;2023-05-10T15:53:02;5.43;;;2.00;;
39486;SDS011;25173;50.430;18.926;2023-05-10T15:56:03;8.13;;;2.00;;
39486;SDS011;25173;50.430;18.926;2023-05-10T15:59:05;4.13;;;2.83;;
39486;SDS011;25173;50.430;18.926;2023-05-10T16:02:10;2.60;;;2.22;;
39486;SDS011;25173;50.430;18.926;2023-05-10T16:05:12;5.03;;;2.45;;
39486;SDS011;25173;50.430;18.926;2023-05-10T16:08:13;5.15;;;2.10;;
39486;SDS011;25173;50.430;18.926;2023-05-10T16:11:13;2.80;;;2.28;;
39486;SDS011;25173;50.430;18.926;2023-05-10T16:14:14;6.70;;;2.47;;
39486;SDS011;25173;50.430;18.926;2023-05-10T16:17:16;5.15;;;2.47;;
39486;SDS011;25173;50.430;18.926;2023-05-10T16:20:17;5.28;;;1.90;;
39486;SDS011;25173;50.430;18.926;2023-05-10T16:23:17;4.97;;;2.38;;
39486;SDS011;25173;50.430;18.926;2023-05-10T16:26:18;6.45;;;2.30;;
39486;SDS011;25173;50.430;18.926;2023-05-10T16:29:18;3.72;;;1.98;;
39486;SDS011;25173;50.430;18.926;2023-05-10T16:32:19;3.67;;;2.10;;
39486;SDS011;25173;50.430;18.926;2023-05-10T16:35:20;6.05;;;2.15;;
39486;SDS011;25173;50.430;18.926;2023-05-10T16:38:22;3.13;;;1.90;;
39486;SDS011;25173;50.430;18.926;2023-05-10T16:41:23;2.58;;;2.10;;
39486;SDS011;25173;50.430;18.926;2023-05-10T16:44:23;7.22;;;2.33;;
39486;SDS011;25173;50.430;18.926;2023-05-10T16:47:24;3.25;;;2.10;;
39486;SDS011;25173;50.430;18.926;2023-05-10T16:50:26;2.63;;;2.30;;
39486;SDS011;25173;50.430;18.926;2023-05-10T16:53:26;4.70;;;2.42;;
39486;SDS011;25173;50.430;18.926;2023-05-10T16:56:28;3.90;;;2.35;;
39486;SDS011;25173;50.430;18.926;2023-05-10T16:59:28;5.20;;;2.30;;
39486;SDS011;25173;50.430;18.926;2023-05-10T17:02:29;6.50;;;2.30;;
39486;SDS011;25173;50.430;18.926;2023-05-10T17:05:29;7.10;;;2.45;;
39486;SDS011;25173;50.430;18.926;2023-05-10T17:08:30;4.80;;;1.98;;
39486;SDS011;25173;50.430;18.926;2023-05-10T17:11:31;4.07;;;2.40;;
39486;SDS011;25173;50.430;18.926;2023-05-10T17:14:31;6.18;;;2.47;;
39486;SDS011;25173;50.430;18.926;2023-05-10T17:17:32;3.42;;;2.15;;
39486;SDS011;25173;50.430;18.926;2023-05-10T17:20:33;4.78;;;2.28;;
39486;SDS011;25173;50.430;18.926;2023-05-10T17:23:33;5.07;;;2.60;;
39486;SDS011;25173;50.430;18.926;2023-05-10T17:26:34;2.47;;;2.00;;
39486;SDS011;25173;50.430;18.926;2023-05-10T17:29:35;2.60;;;2.10;;
39486;SDS011;25173;50.430;18.926;2023-05-10T17:32:35;9.57;;;3.28;;
39486;SDS011;25173;50.430;18.926;2023-05-10T17:35:36;4.55;;;2.25;;
39486;SDS011;25173;50.430;18.926;2023-05-10T17:38:36;9.55;;;2.30;;
39486;SDS011;25173;50.430;18.926;2023-05-10T17:41:37;3.92;;;2.33;;
39486;SDS011;25173;50.430;18.926;2023-05-10T17:44:38;4.32;;;2.17;;
39486;SDS011;25173;50.430;18.926;2023-05-10T17:47:38;5.25;;;2.67;;
39486;SDS011;25173;50.430;18.926;2023-05-10T17:50:40;4.40;;;2.60;;
39486;SDS011;25173;50.430;18.926;2023-05-10T17:53:49;4.10;;;3.00;;
39486;SDS011;25173;50.430;18.926;2023-05-10T17:56:51;40.95;;;23.48;;
39486;SDS011;25173;50.430;18.926;2023-05-10T17:59:52;34.75;;;22.65;;
39486;SDS011;25173;50.430;18.926;2023-05-10T18:02:53;40.70;;;22.27;;
39486;SDS011;25173;50.430;18.926;2023-05-10T18:05:56;13.75;;;8.25;;
39486;SDS011;25173;50.430;18.926;2023-05-10T18:08:56;9.30;;;4.88;;
39486;SDS011;25173;50.430;18.926;2023-05-10T18:11:57;16.52;;;9.02;;
39486;SDS011;25173;50.430;18.926;2023-05-10T18:14:58;11.07;;;5.20;;
39486;SDS011;25173;50.430;18.926;2023-05-10T18:18:02;26.00;;;10.20;;
39486;SDS011;25173;50.430;18.926;2023-05-10T18:21:04;16.08;;;6.32;;
39486;SDS011;25173;50.430;18.926;2023-05-10T18:24:07;6.07;;;4.18;;
39486;SDS011;25173;50.430;18.926;2023-05-10T18:27:09;6.10;;;4.13;;
39486;SDS011;25173;50.430;18.926;2023-05-10T18:30:11;8.88;;;3.88;;
39486;SDS011;25173;50.430;18.926;2023-05-10T18:33:13;5.78;;;3.55;;
39486;SDS011;25173;50.430;18.926;2023-05-10T18:36:13;6.00;;;3.53;;
39486;SDS011;25173;50.430;18.926;2023-05-10T18:39:14;7.03;;;3.92;;